Aviation Digital Data Service (ADDS)

Output produced by METARs form (1437 UTC 24 August 2019)
found at http://www.aviationweather.gov/metar/data/
 
Forecast for: ZGKL (GUILIN , CN)
Text: TAF ZGKL 240924Z 2412/2512 06004MPS CAVOK TX38/2507Z TN24/2422Z
Forecast period: 1200 UTC 24 August 2019 to 1200 UTC 25 August 2019
Forecast type: FROM: standard forecast or significant change
Winds: from the ENE (60 degrees) at 9 MPH (8 knots; 4.1 m/s)
Visibility: 6 or more miles 10+ km)
Ceiling: unknown
Clouds: missing
Weather: no significant weather forecast for this period
Text: TEMPO 2506/2512 -TSRA FEW033CB SCT040
Forecast period: 0600 to 1200 UTC 25 August 2019
Forecast type: TEMPORARY: The following changes expected for less than half the time period
Visibility: missing
Ceiling: at least 12,000 feet AGL
Clouds: few clouds at 3300 feet AGL
scattered clouds at 4000 feet AGL
Weather: -TSRA  (light rain associated with thunderstorm(s))